sensor_id;sensor_type;location;lat;lon;timestamp;P1;durP1;ratioP1;P2;durP2;ratioP2
37891;SDS011;45797;47.466;9.486;2022-09-28T00:01:41;0.50;;;0.40;;
37891;SDS011;45797;47.466;9.486;2022-09-28T00:12:02;1.95;;;0.40;;
37891;SDS011;45797;47.466;9.486;2022-09-28T00:17:11;1.15;;;0.40;;
37891;SDS011;45797;47.466;9.486;2022-09-28T00:22:11;1.10;;;0.47;;
37891;SDS011;45797;47.466;9.486;2022-09-28T00:27:22;0.57;;;0.40;;
37891;SDS011;45797;47.466;9.486;2022-09-28T00:32:24;1.08;;;0.50;;
37891;SDS011;45797;47.466;9.486;2022-09-28T00:37:32;1.95;;;0.50;;
37891;SDS011;45797;47.466;9.486;2022-09-28T00:42:32;0.65;;;0.40;;
37891;SDS011;45797;47.466;9.486;2022-09-28T00:58:12;0.77;;;0.40;;
37891;SDS011;45797;47.466;9.486;2022-09-28T01:03:16;0.65;;;0.32;;
37891;SDS011;45797;47.466;9.486;2022-09-28T01:08:30;1.33;;;0.50;;
37891;SDS011;45797;47.466;9.486;2022-09-28T01:13:32;0.80;;;0.40;;
37891;SDS011;45797;47.466;9.486;2022-09-28T01:18:53;0.52;;;0.30;;
37891;SDS011;45797;47.466;9.486;2022-09-28T01:29:38;1.10;;;0.70;;
37891;SDS011;45797;47.466;9.486;2022-09-28T01:40:15;0.50;;;0.40;;
37891;SDS011;45797;47.466;9.486;2022-09-28T01:45:28;0.45;;;0.30;;
37891;SDS011;45797;47.466;9.486;2022-09-28T01:50:35;0.60;;;0.40;;
37891;SDS011;45797;47.466;9.486;2022-09-28T02:01:11;0.55;;;0.30;;
37891;SDS011;45797;47.466;9.486;2022-09-28T02:06:27;0.77;;;0.43;;
37891;SDS011;45797;47.466;9.486;2022-09-28T02:16:45;0.30;;;0.30;;
37891;SDS011;45797;47.466;9.486;2022-09-28T02:22:09;0.70;;;0.40;;
37891;SDS011;45797;47.466;9.486;2022-09-28T02:27:13;0.93;;;0.40;;
37891;SDS011;45797;47.466;9.486;2022-09-28T02:32:19;0.43;;;0.30;;
37891;SDS011;45797;47.466;9.486;2022-09-28T02:42:25;0.93;;;0.40;;
37891;SDS011;45797;47.466;9.486;2022-09-28T02:47:39;0.50;;;0.30;;
37891;SDS011;45797;47.466;9.486;2022-09-28T02:58:37;0.65;;;0.30;;
37891;SDS011;45797;47.466;9.486;2022-09-28T03:14:28;0.30;;;0.30;;
37891;SDS011;45797;47.466;9.486;2022-09-28T03:19:47;0.77;;;0.40;;
37891;SDS011;45797;47.466;9.486;2022-09-28T03:24:48;0.70;;;0.40;;
37891;SDS011;45797;47.466;9.486;2022-09-28T03:29:49;0.90;;;0.40;;
37891;SDS011;45797;47.466;9.486;2022-09-28T03:34:51;0.82;;;0.30;;
37891;SDS011;45797;47.466;9.486;2022-09-28T03:39:51;0.90;;;0.38;;
37891;SDS011;45797;47.466;9.486;2022-09-28T03:44:50;0.60;;;0.40;;
37891;SDS011;45797;47.466;9.486;2022-09-28T03:55:10;1.35;;;0.40;;
37891;SDS011;45797;47.466;9.486;2022-09-28T04:00:11;0.85;;;0.40;;
37891;SDS011;45797;47.466;9.486;2022-09-28T04:05:16;0.40;;;0.22;;
37891;SDS011;45797;47.466;9.486;2022-09-28T04:10:17;1.83;;;0.30;;
37891;SDS011;45797;47.466;9.486;2022-09-28T04:15:17;2.40;;;0.60;;
37891;SDS011;45797;47.466;9.486;2022-09-28T04:20:17;0.95;;;0.57;;
37891;SDS011;45797;47.466;9.486;2022-09-28T04:25:42;1.40;;;0.57;;
37891;SDS011;45797;47.466;9.486;2022-09-28T04:35:58;0.90;;;0.30;;
37891;SDS011;45797;47.466;9.486;2022-09-28T04:41:00;1.33;;;0.50;;
37891;SDS011;45797;47.466;9.486;2022-09-28T04:46:01;1.60;;;0.70;;
37891;SDS011;45797;47.466;9.486;2022-09-28T04:51:11;1.88;;;0.73;;
37891;SDS011;45797;47.466;9.486;2022-09-28T04:56:16;2.55;;;0.98;;
37891;SDS011;45797;47.466;9.486;2022-09-28T05:01:17;2.38;;;0.93;;
37891;SDS011;45797;47.466;9.486;2022-09-28T05:06:40;1.35;;;0.60;;
37891;SDS011;45797;47.466;9.486;2022-09-28T05:11:43;1.00;;;0.50;;
37891;SDS011;45797;47.466;9.486;2022-09-28T05:16:59;1.80;;;0.57;;
37891;SDS011;45797;47.466;9.486;2022-09-28T05:22:06;0.95;;;0.50;;
37891;SDS011;45797;47.466;9.486;2022-09-28T05:27:31;0.63;;;0.32;;
37891;SDS011;45797;47.466;9.486;2022-09-28T05:32:47;1.63;;;0.60;;
37891;SDS011;45797;47.466;9.486;2022-09-28T05:38:03;0.70;;;0.30;;
37891;SDS011;45797;47.466;9.486;2022-09-28T05:43:05;3.10;;;0.50;;
37891;SDS011;45797;47.466;9.486;2022-09-28T05:48:07;0.95;;;0.47;;
37891;SDS011;45797;47.466;9.486;2022-09-28T05:53:09;0.88;;;0.50;;
37891;SDS011;45797;47.466;9.486;2022-09-28T05:58:10;1.20;;;0.40;;
37891;SDS011;45797;47.466;9.486;2022-09-28T06:03:16;1.05;;;0.50;;
37891;SDS011;45797;47.466;9.486;2022-09-28T06:08:17;2.15;;;0.50;;
37891;SDS011;45797;47.466;9.486;2022-09-28T06:13:21;0.80;;;0.50;;
37891;SDS011;45797;47.466;9.486;2022-09-28T06:18:23;1.23;;;0.40;;
37891;SDS011;45797;47.466;9.486;2022-09-28T06:23:42;0.60;;;0.40;;
37891;SDS011;45797;47.466;9.486;2022-09-28T06:28:54;1.60;;;0.60;;
37891;SDS011;45797;47.466;9.486;2022-09-28T06:33:55;1.63;;;0.57;;
37891;SDS011;45797;47.466;9.486;2022-09-28T06:38:56;1.45;;;0.50;;
37891;SDS011;45797;47.466;9.486;2022-09-28T06:43:57;1.40;;;0.60;;
37891;SDS011;45797;47.466;9.486;2022-09-28T06:49:06;1.00;;;0.40;;
37891;SDS011;45797;47.466;9.486;2022-09-28T06:54:46;1.10;;;0.40;;
37891;SDS011;45797;47.466;9.486;2022-09-28T06:59:56;0.80;;;0.40;;
37891;SDS011;45797;47.466;9.486;2022-09-28T07:04:58;1.85;;;0.45;;
37891;SDS011;45797;47.466;9.486;2022-09-28T07:10:22;1.08;;;0.40;;
37891;SDS011;45797;47.466;9.486;2022-09-28T07:16:04;0.63;;;0.32;;
37891;SDS011;45797;47.466;9.486;2022-09-28T07:21:06;0.88;;;0.40;;
37891;SDS011;45797;47.466;9.486;2022-09-28T07:26:16;0.30;;;0.30;;
37891;SDS011;45797;47.466;9.486;2022-09-28T07:31:32;0.38;;;0.30;;
37891;SDS011;45797;47.466;9.486;2022-09-28T07:37:03;0.57;;;0.40;;
37891;SDS011;45797;47.466;9.486;2022-09-28T07:42:14;2.20;;;0.45;;
37891;SDS011;45797;47.466;9.486;2022-09-28T07:47:15;0.30;;;0.30;;
37891;SDS011;45797;47.466;9.486;2022-09-28T07:52:35;0.60;;;0.40;;
37891;SDS011;45797;47.466;9.486;2022-09-28T07:57:45;0.38;;;0.30;;
37891;SDS011;45797;47.466;9.486;2022-09-28T08:03:04;0.40;;;0.38;;
37891;SDS011;45797;47.466;9.486;2022-09-28T08:08:05;0.60;;;0.38;;
37891;SDS011;45797;47.466;9.486;2022-09-28T08:18:49;0.20;;;0.20;;
37891;SDS011;45797;47.466;9.486;2022-09-28T08:23:51;0.50;;;0.40;;
37891;SDS011;45797;47.466;9.486;2022-09-28T08:28:51;0.68;;;0.40;;
37891;SDS011;45797;47.466;9.486;2022-09-28T08:34:11;0.30;;;0.22;;
37891;SDS011;45797;47.466;9.486;2022-09-28T08:45:10;0.20;;;0.20;;
37891;SDS011;45797;47.466;9.486;2022-09-28T08:50:55;0.32;;;0.28;;
37891;SDS011;45797;47.466;9.486;2022-09-28T08:56:25;0.30;;;0.30;;
37891;SDS011;45797;47.466;9.486;2022-09-28T09:01:41;0.43;;;0.22;;
37891;SDS011;45797;47.466;9.486;2022-09-28T09:06:59;0.22;;;0.22;;
37891;SDS011;45797;47.466;9.486;2022-09-28T09:23:26;0.43;;;0.22;;
37891;SDS011;45797;47.466;9.486;2022-09-28T09:28:42;0.20;;;0.20;;
37891;SDS011;45797;47.466;9.486;2022-09-28T09:45:30;0.35;;;0.25;;
37891;SDS011;45797;47.466;9.486;2022-09-28T09:50:54;0.35;;;0.20;;
37891;SDS011;45797;47.466;9.486;2022-09-28T09:56:10;0.20;;;0.20;;
37891;SDS011;45797;47.466;9.486;2022-09-28T10:01:50;0.55;;;0.25;;
37891;SDS011;45797;47.466;9.486;2022-09-28T10:07:22;0.47;;;0.20;;
37891;SDS011;45797;47.466;9.486;2022-09-28T10:12:24;0.20;;;0.20;;
37891;SDS011;45797;47.466;9.486;2022-09-28T10:17:27;0.55;;;0.28;;
37891;SDS011;45797;47.466;9.486;2022-09-28T10:22:48;0.43;;;0.30;;
37891;SDS011;45797;47.466;9.486;2022-09-28T10:27:54;0.30;;;0.30;;
37891;SDS011;45797;47.466;9.486;2022-09-28T10:32:59;0.65;;;0.30;;
37891;SDS011;45797;47.466;9.486;2022-09-28T10:44:10;0.20;;;0.20;;
37891;SDS011;45797;47.466;9.486;2022-09-28T10:55:21;0.80;;;0.30;;
37891;SDS011;45797;47.466;9.486;2022-09-28T11:05:58;0.30;;;0.20;;
37891;SDS011;45797;47.466;9.486;2022-09-28T11:11:07;0.95;;;0.40;;
37891;SDS011;45797;47.466;9.486;2022-09-28T11:16:23;0.82;;;0.40;;
37891;SDS011;45797;47.466;9.486;2022-09-28T11:26:53;0.77;;;0.38;;
37891;SDS011;45797;47.466;9.486;2022-09-28T11:32:01;0.85;;;0.40;;
37891;SDS011;45797;47.466;9.486;2022-09-28T11:54:22;0.38;;;0.25;;
37891;SDS011;45797;47.466;9.486;2022-09-28T11:59:37;0.65;;;0.38;;
37891;SDS011;45797;47.466;9.486;2022-09-28T12:05:07;0.22;;;0.20;;
37891;SDS011;45797;47.466;9.486;2022-09-28T12:59:39;0.98;;;0.50;;
37891;SDS011;45797;47.466;9.486;2022-09-28T13:21:02;1.15;;;0.60;;
37891;SDS011;45797;47.466;9.486;2022-09-28T13:26:30;2.10;;;0.60;;
37891;SDS011;45797;47.466;9.486;2022-09-28T13:48:02;1.05;;;0.55;;
37891;SDS011;45797;47.466;9.486;2022-09-28T13:58:32;2.33;;;0.70;;
37891;SDS011;45797;47.466;9.486;2022-09-28T14:19:20;1.52;;;0.60;;
37891;SDS011;45797;47.466;9.486;2022-09-28T14:29:33;1.13;;;0.52;;
37891;SDS011;45797;47.466;9.486;2022-09-28T14:34:47;0.82;;;0.50;;
37891;SDS011;45797;47.466;9.486;2022-09-28T14:39:55;1.55;;;0.60;;
37891;SDS011;45797;47.466;9.486;2022-09-28T14:50:42;2.85;;;0.80;;
37891;SDS011;45797;47.466;9.486;2022-09-28T14:55:58;2.70;;;0.73;;
37891;SDS011;45797;47.466;9.486;2022-09-28T15:01:15;2.42;;;0.60;;
37891;SDS011;45797;47.466;9.486;2022-09-28T15:28:12;2.28;;;0.77;;
37891;SDS011;45797;47.466;9.486;2022-09-28T15:33:30;1.42;;;0.68;;
37891;SDS011;45797;47.466;9.486;2022-09-28T15:39:04;1.75;;;0.60;;
37891;SDS011;45797;47.466;9.486;2022-09-28T16:17:16;2.78;;;1.30;;
37891;SDS011;45797;47.466;9.486;2022-09-28T16:22:19;2.78;;;1.08;;
37891;SDS011;45797;47.466;9.486;2022-09-28T16:27:40;2.25;;;0.93;;
37891;SDS011;45797;47.466;9.486;2022-09-28T16:38:11;2.65;;;0.90;;
37891;SDS011;45797;47.466;9.486;2022-09-28T16:48:46;1.80;;;0.85;;
37891;SDS011;45797;47.466;9.486;2022-09-28T16:53:59;2.35;;;1.00;;
37891;SDS011;45797;47.466;9.486;2022-09-28T16:59:40;3.03;;;0.90;;
37891;SDS011;45797;47.466;9.486;2022-09-28T17:10:01;1.25;;;0.60;;
37891;SDS011;45797;47.466;9.486;2022-09-28T17:15:02;1.10;;;0.50;;
37891;SDS011;45797;47.466;9.486;2022-09-28T17:20:19;0.85;;;0.40;;
37891;SDS011;45797;47.466;9.486;2022-09-28T17:25:25;0.90;;;0.50;;
37891;SDS011;45797;47.466;9.486;2022-09-28T17:30:36;1.40;;;0.60;;
37891;SDS011;45797;47.466;9.486;2022-09-28T17:35:37;0.68;;;0.43;;
37891;SDS011;45797;47.466;9.486;2022-09-28T17:45:58;0.82;;;0.40;;
37891;SDS011;45797;47.466;9.486;2022-09-28T18:01:05;0.40;;;0.22;;
37891;SDS011;45797;47.466;9.486;2022-09-28T18:11:25;0.73;;;0.32;;
37891;SDS011;45797;47.466;9.486;2022-09-28T18:16:26;0.60;;;0.35;;
37891;SDS011;45797;47.466;9.486;2022-09-28T18:21:33;0.57;;;0.40;;
37891;SDS011;45797;47.466;9.486;2022-09-28T18:26:33;0.20;;;0.20;;
37891;SDS011;45797;47.466;9.486;2022-09-28T18:31:33;0.30;;;0.30;;
37891;SDS011;45797;47.466;9.486;2022-09-28T18:36:35;0.20;;;0.20;;
37891;SDS011;45797;47.466;9.486;2022-09-28T18:41:36;0.50;;;0.30;;
37891;SDS011;45797;47.466;9.486;2022-09-28T18:46:38;1.70;;;0.68;;
37891;SDS011;45797;47.466;9.486;2022-09-28T18:51:40;0.63;;;0.40;;
37891;SDS011;45797;47.466;9.486;2022-09-28T18:56:40;1.15;;;0.52;;
37891;SDS011;45797;47.466;9.486;2022-09-28T19:01:41;2.85;;;1.00;;
37891;SDS011;45797;47.466;9.486;2022-09-28T19:06:41;2.70;;;1.15;;
37891;SDS011;45797;47.466;9.486;2022-09-28T19:11:42;1.42;;;0.60;;
37891;SDS011;45797;47.466;9.486;2022-09-28T19:16:42;0.70;;;0.20;;
37891;SDS011;45797;47.466;9.486;2022-09-28T19:21:43;2.05;;;0.30;;
37891;SDS011;45797;47.466;9.486;2022-09-28T19:26:57;0.57;;;0.30;;
37891;SDS011;45797;47.466;9.486;2022-09-28T19:31:59;0.40;;;0.30;;
37891;SDS011;45797;47.466;9.486;2022-09-28T19:37:09;0.30;;;0.22;;
37891;SDS011;45797;47.466;9.486;2022-09-28T19:42:18;0.88;;;0.40;;
37891;SDS011;45797;47.466;9.486;2022-09-28T19:47:25;0.40;;;0.30;;
37891;SDS011;45797;47.466;9.486;2022-09-28T19:52:36;0.30;;;0.28;;
37891;SDS011;45797;47.466;9.486;2022-09-28T19:57:36;0.65;;;0.35;;
37891;SDS011;45797;47.466;9.486;2022-09-28T20:15:02;0.20;;;0.20;;
37891;SDS011;45797;47.466;9.486;2022-09-28T20:20:04;0.30;;;0.20;;
37891;SDS011;45797;47.466;9.486;2022-09-28T20:25:13;0.52;;;0.20;;
37891;SDS011;45797;47.466;9.486;2022-09-28T20:30:13;0.10;;;0.10;;
37891;SDS011;45797;47.466;9.486;2022-09-28T20:35:22;0.35;;;0.30;;
37891;SDS011;45797;47.466;9.486;2022-09-28T20:40:21;1.17;;;0.30;;
37891;SDS011;45797;47.466;9.486;2022-09-28T20:45:22;0.93;;;0.40;;
37891;SDS011;45797;47.466;9.486;2022-09-28T20:50:23;0.20;;;0.20;;
37891;SDS011;45797;47.466;9.486;2022-09-28T20:55:30;0.50;;;0.30;;
37891;SDS011;45797;47.466;9.486;2022-09-28T21:00:30;0.88;;;0.28;;
37891;SDS011;45797;47.466;9.486;2022-09-28T21:05:34;0.40;;;0.28;;
37891;SDS011;45797;47.466;9.486;2022-09-28T21:10:36;0.20;;;0.20;;
37891;SDS011;45797;47.466;9.486;2022-09-28T21:15:41;0.43;;;0.30;;
37891;SDS011;45797;47.466;9.486;2022-09-28T21:20:51;0.20;;;0.20;;
37891;SDS011;45797;47.466;9.486;2022-09-28T21:26:09;0.30;;;0.30;;
37891;SDS011;45797;47.466;9.486;2022-09-28T21:36:14;0.57;;;0.30;;
37891;SDS011;45797;47.466;9.486;2022-09-28T21:51:43;0.30;;;0.30;;
37891;SDS011;45797;47.466;9.486;2022-09-28T21:56:47;0.25;;;0.20;;
37891;SDS011;45797;47.466;9.486;2022-09-28T22:01:57;1.08;;;0.35;;
37891;SDS011;45797;47.466;9.486;2022-09-28T22:07:02;0.40;;;0.30;;
37891;SDS011;45797;47.466;9.486;2022-09-28T22:17:17;0.50;;;0.30;;
37891;SDS011;45797;47.466;9.486;2022-09-28T22:22:19;0.30;;;0.30;;
37891;SDS011;45797;47.466;9.486;2022-09-28T22:27:20;0.40;;;0.32;;
37891;SDS011;45797;47.466;9.486;2022-09-28T22:32:36;0.32;;;0.20;;
37891;SDS011;45797;47.466;9.486;2022-09-28T22:37:37;2.88;;;0.32;;
37891;SDS011;45797;47.466;9.486;2022-09-28T22:42:37;0.20;;;0.20;;
37891;SDS011;45797;47.466;9.486;2022-09-28T22:47:38;0.30;;;0.30;;
37891;SDS011;45797;47.466;9.486;2022-09-28T22:52:39;0.43;;;0.30;;
37891;SDS011;45797;47.466;9.486;2022-09-28T22:57:40;0.30;;;0.20;;
37891;SDS011;45797;47.466;9.486;2022-09-28T23:02:58;0.20;;;0.20;;
37891;SDS011;45797;47.466;9.486;2022-09-28T23:07:59;1.13;;;0.30;;
37891;SDS011;45797;47.466;9.486;2022-09-28T23:12:58;0.20;;;0.20;;
37891;SDS011;45797;47.466;9.486;2022-09-28T23:17:58;0.30;;;0.22;;
37891;SDS011;45797;47.466;9.486;2022-09-28T23:23:08;0.52;;;0.20;;
37891;SDS011;45797;47.466;9.486;2022-09-28T23:28:08;0.20;;;0.20;;
37891;SDS011;45797;47.466;9.486;2022-09-28T23:33:10;0.32;;;0.30;;
37891;SDS011;45797;47.466;9.486;2022-09-28T23:38:12;0.35;;;0.30;;
37891;SDS011;45797;47.466;9.486;2022-09-28T23:43:20;0.73;;;0.40;;
37891;SDS011;45797;47.466;9.486;2022-09-28T23:48:21;0.30;;;0.20;;
37891;SDS011;45797;47.466;9.486;2022-09-28T23:58:38;1.48;;;0.28;;
